createdAt,value
2023-11-11T00:02:15.673Z,20.67
2023-11-11T00:04:45.431Z,20.66
2023-11-11T00:07:15.236Z,20.62
2023-11-11T00:09:45.074Z,20.42
2023-11-11T00:12:14.877Z,20.74
2023-11-11T00:14:44.662Z,20.75
2023-11-11T00:17:14.611Z,20.54
2023-11-11T00:19:45.698Z,20.79
2023-11-11T00:22:16.481Z,20.66
2023-11-11T00:24:47.280Z,20.73
2023-11-11T00:27:16.963Z,20.73
2023-11-11T00:29:46.706Z,20.86
2023-11-11T00:32:16.576Z,20.67
2023-11-11T00:34:47.852Z,20.61
2023-11-11T00:37:21.876Z,20.66
2023-11-11T00:39:51.660Z,20.60
2023-11-11T00:42:21.410Z,20.62
2023-11-11T00:44:51.585Z,20.60
2023-11-11T00:47:21.268Z,20.60
2023-11-11T00:49:52.097Z,20.67
2023-11-11T00:52:22.832Z,20.64
2023-11-11T00:54:52.552Z,20.69
2023-11-11T00:57:22.203Z,20.81
2023-11-11T00:59:51.897Z,20.47
2023-11-11T01:02:21.521Z,20.69
2023-11-11T01:04:51.242Z,20.54
2023-11-11T01:07:20.900Z,20.55
2023-11-11T01:09:51.627Z,20.43
2023-11-11T01:12:23.131Z,20.29
2023-11-11T01:14:53.263Z,20.55
2023-11-11T01:17:23.056Z,20.44
2023-11-11T01:19:52.943Z,20.43
2023-11-11T01:22:22.693Z,20.44
2023-11-11T01:24:52.436Z,20.49
2023-11-11T01:27:25.279Z,20.44
2023-11-11T01:29:54.950Z,20.38
2023-11-11T01:32:25.581Z,20.35
2023-11-11T01:34:58.099Z,20.67
2023-11-11T01:37:27.965Z,20.60
2023-11-11T01:39:57.659Z,20.57
2023-11-11T01:42:27.631Z,20.63
2023-11-11T01:44:58.032Z,20.55
2023-11-11T01:47:27.765Z,20.76
2023-11-11T01:49:57.442Z,20.37
2023-11-11T01:52:27.108Z,20.58
2023-11-11T01:54:56.865Z,20.68
2023-11-11T01:57:26.880Z,20.96
2023-11-11T01:59:57.632Z,20.66
2023-11-11T02:02:27.463Z,20.74
2023-11-11T02:04:57.458Z,20.71
2023-11-11T02:07:27.224Z,20.87
2023-11-11T02:09:57.345Z,20.91
2023-11-11T02:12:27.032Z,20.86
2023-11-11T02:14:56.695Z,20.91
2023-11-11T02:17:27.559Z,20.95
2023-11-11T02:19:57.346Z,21.05
2023-11-11T02:22:27.918Z,21.03
2023-11-11T02:25:00.303Z,21.01
2023-11-11T02:27:30.051Z,20.92
2023-11-11T02:29:59.775Z,20.79
2023-11-11T02:32:29.420Z,21.02
2023-11-11T02:34:59.838Z,21.02
2023-11-11T02:37:29.775Z,21.02
2023-11-11T02:40:02.374Z,21.18
2023-11-11T02:42:32.076Z,20.95
2023-11-11T02:45:01.739Z,21.13
2023-11-11T02:47:31.411Z,20.74
2023-11-11T02:50:01.418Z,20.91
2023-11-11T02:52:31.124Z,20.75
2023-11-11T02:55:00.919Z,20.95
2023-11-11T02:57:31.237Z,20.88
2023-11-11T03:00:01.895Z,20.69
2023-11-11T03:02:34.387Z,20.69
2023-11-11T03:05:04.094Z,20.62
2023-11-11T03:07:35.341Z,20.50
2023-11-11T03:10:07.546Z,20.38
2023-11-11T03:12:40.412Z,20.56
2023-11-11T03:15:11.152Z,20.47
2023-11-11T03:17:41.038Z,20.47
2023-11-11T03:20:11.355Z,20.24
2023-11-11T03:22:41.378Z,20.12
2023-11-11T03:25:12.868Z,20.28
2023-11-11T03:27:42.598Z,20.24
2023-11-11T03:30:12.816Z,20.11
2023-11-11T03:32:42.915Z,20.25
2023-11-11T03:35:12.581Z,20.12
2023-11-11T03:37:42.220Z,19.96
2023-11-11T03:40:13.245Z,20.24
2023-11-11T03:42:43.270Z,19.94
2023-11-11T03:45:13.100Z,19.98
2023-11-11T03:47:43.510Z,19.86
2023-11-11T03:50:13.280Z,19.85
2023-11-11T03:52:42.988Z,19.55
2023-11-11T03:55:13.009Z,19.67
2023-11-11T03:57:42.715Z,19.84
2023-11-11T04:00:19.103Z,19.42
2023-11-11T04:02:49.736Z,19.65
2023-11-11T04:05:23.611Z,19.43
2023-11-11T04:07:53.269Z,19.40
2023-11-11T04:10:22.947Z,19.42
2023-11-11T04:12:52.714Z,19.38
2023-11-11T04:15:23.737Z,19.23
2023-11-11T04:17:53.714Z,19.43
2023-11-11T04:20:23.463Z,19.25
2023-11-11T04:22:53.132Z,19.33
2023-11-11T04:25:22.791Z,19.13
2023-11-11T04:27:52.785Z,18.84
2023-11-11T04:30:22.527Z,18.70
2023-11-11T04:32:52.424Z,18.84
2023-11-11T04:35:22.118Z,18.82
2023-11-11T04:37:51.999Z,18.80
2023-11-11T04:40:21.739Z,18.83
2023-11-11T04:42:51.399Z,18.65
2023-11-11T04:45:21.206Z,18.89
2023-11-11T04:47:53.775Z,18.63
2023-11-11T04:50:23.819Z,18.79
2023-11-11T04:52:53.589Z,18.59
2023-11-11T04:55:23.308Z,18.41
2023-11-11T04:57:53.323Z,18.49
2023-11-11T05:00:23.065Z,18.72
2023-11-11T05:02:53.070Z,18.61
2023-11-11T05:05:23.317Z,18.67
2023-11-11T05:07:53.058Z,18.51
2023-11-11T05:10:24.719Z,18.59
2023-11-11T05:12:55.894Z,18.67
2023-11-11T05:15:27.667Z,18.57
2023-11-11T05:18:00.320Z,18.68
2023-11-11T05:20:29.972Z,18.70
2023-11-11T05:23:00.020Z,18.77
2023-11-11T05:25:30.747Z,18.88
2023-11-11T05:28:00.524Z,18.65
2023-11-11T05:30:30.306Z,18.56
2023-11-11T05:33:00.070Z,18.64
2023-11-11T05:35:29.853Z,18.58
2023-11-11T05:38:01.757Z,18.33
2023-11-11T05:40:32.557Z,18.62
2023-11-11T05:43:02.826Z,18.42
2023-11-11T05:45:32.972Z,18.26
2023-11-11T05:48:02.838Z,18.35
2023-11-11T05:50:33.253Z,18.26
2023-11-11T05:53:03.033Z,18.31
2023-11-11T05:55:32.722Z,18.16
2023-11-11T05:58:02.392Z,18.20
2023-11-11T06:00:32.352Z,17.99
2023-11-11T06:03:02.137Z,18.05
2023-11-11T06:05:31.889Z,18.04
2023-11-11T06:08:01.558Z,17.89
2023-11-11T06:10:32.586Z,17.84
2023-11-11T06:13:02.281Z,17.94
2023-11-11T06:15:32.015Z,18.23
2023-11-11T06:18:01.782Z,17.93
2023-11-11T06:20:33.532Z,17.96
2023-11-11T06:25:36.361Z,18.06
2023-11-11T06:28:06.984Z,18.02
2023-11-11T06:30:36.674Z,17.87
2023-11-11T06:33:07.589Z,17.86
2023-11-11T06:35:37.660Z,17.86
2023-11-11T06:38:07.445Z,17.85
2023-11-11T06:40:37.113Z,17.96
2023-11-11T06:43:09.957Z,17.88
2023-11-11T06:45:44.502Z,17.92
2023-11-11T06:48:15.201Z,18.14
2023-11-11T06:50:45.092Z,18.18
2023-11-11T06:53:14.837Z,18.16
2023-11-11T06:55:44.712Z,18.06
2023-11-11T06:58:14.747Z,18.16
2023-11-11T07:00:44.532Z,18.29
2023-11-11T07:03:15.048Z,18.37
2023-11-11T07:05:44.790Z,18.30
2023-11-11T07:08:14.486Z,18.16
2023-11-11T07:10:45.768Z,18.37
2023-11-11T07:13:15.665Z,18.54
2023-11-11T07:15:45.374Z,18.46
2023-11-11T07:18:15.378Z,18.54
2023-11-11T07:20:45.157Z,18.65
2023-11-11T07:23:14.818Z,18.71
2023-11-11T07:25:44.506Z,18.55
2023-11-11T07:28:14.216Z,18.67
2023-11-11T07:30:43.948Z,18.91
2023-11-11T07:33:13.749Z,18.71
2023-11-11T07:35:43.435Z,18.74
2023-11-11T07:38:13.095Z,18.69
2023-11-11T07:40:42.996Z,18.74
2023-11-11T07:43:12.628Z,18.69
2023-11-11T07:45:42.387Z,18.44
2023-11-11T07:48:12.171Z,18.61
2023-11-11T07:50:41.783Z,18.71
2023-11-11T07:53:12.990Z,18.60
2023-11-11T07:55:42.676Z,18.72
2023-11-11T08:00:44.664Z,18.45
2023-11-11T08:03:14.387Z,18.71
2023-11-11T08:05:45.363Z,18.72
2023-11-11T08:08:16.997Z,18.91
2023-11-11T08:10:51.379Z,18.80
2023-11-11T08:13:21.387Z,18.85
2023-11-11T08:15:51.426Z,18.79
2023-11-11T08:18:21.154Z,18.77
2023-11-11T08:20:51.637Z,18.78
2023-11-11T08:23:21.833Z,18.69
2023-11-11T08:25:53.866Z,19.01
2023-11-11T08:28:25.402Z,18.98
2023-11-11T08:30:55.314Z,18.83
2023-11-11T08:33:25.084Z,19.24
2023-11-11T08:35:54.766Z,19.08
2023-11-11T08:38:24.446Z,18.91
2023-11-11T08:40:54.181Z,19.18
2023-11-11T08:43:24.005Z,19.28
2023-11-11T08:45:53.736Z,19.06
2023-11-11T08:48:23.549Z,19.14
2023-11-11T08:50:53.508Z,19.11
2023-11-11T08:53:23.139Z,19.33
2023-11-11T08:55:52.933Z,19.27
2023-11-11T08:58:22.683Z,19.27
2023-11-11T09:00:52.435Z,19.32
2023-11-11T09:03:22.862Z,19.51
2023-11-11T09:05:52.888Z,19.44
2023-11-11T09:08:23.340Z,19.44
2023-11-11T09:10:53.412Z,19.48
2023-11-11T09:13:25.318Z,19.64
2023-11-11T09:15:55.414Z,19.51
2023-11-11T09:18:25.212Z,19.65
2023-11-11T09:20:54.916Z,19.64
2023-11-11T09:23:24.695Z,19.69
2023-11-11T09:25:54.396Z,19.49
2023-11-11T09:28:24.612Z,19.69
2023-11-11T09:30:54.420Z,19.67
2023-11-11T09:33:24.175Z,19.76
2023-11-11T09:35:54.279Z,19.64
2023-11-11T09:38:23.914Z,19.89
2023-11-11T09:40:53.590Z,19.85
2023-11-11T09:43:23.561Z,20.01
2023-11-11T09:45:54.975Z,19.52
2023-11-11T09:48:27.337Z,19.96
2023-11-11T09:50:56.939Z,19.95
2023-11-11T09:53:27.212Z,19.94
2023-11-11T09:55:56.907Z,19.97
2023-11-11T09:58:27.562Z,20.03
2023-11-11T10:00:57.289Z,20.31
2023-11-11T10:03:27.045Z,19.99
2023-11-11T10:05:57.558Z,20.14
2023-11-11T10:08:27.666Z,20.24
2023-11-11T10:10:57.405Z,20.39
2023-11-11T10:13:27.123Z,20.32
2023-11-11T10:16:32.179Z,20.33
2023-11-11T10:19:01.909Z,20.38
2023-11-11T10:21:31.529Z,20.38
2023-11-11T10:24:02.014Z,20.51
2023-11-11T10:26:31.892Z,20.34
2023-11-11T10:29:02.114Z,20.44
2023-11-11T10:31:32.164Z,20.61
2023-11-11T10:34:01.846Z,20.41
2023-11-11T10:36:40.441Z,20.59
2023-11-11T10:39:14.544Z,20.49
2023-11-11T10:41:45.986Z,20.53
2023-11-11T10:44:15.976Z,20.60
2023-11-11T10:46:46.741Z,20.56
2023-11-11T10:49:16.476Z,20.72
2023-11-11T10:51:46.149Z,20.51
2023-11-11T10:54:15.878Z,20.65
2023-11-11T10:56:46.001Z,20.83
2023-11-11T10:59:16.308Z,20.61
2023-11-11T11:01:46.330Z,20.69
2023-11-11T11:04:16.262Z,20.82
2023-11-11T11:07:11.957Z,20.91
2023-11-11T11:10:04.311Z,20.83
2023-11-11T11:12:43.393Z,20.94
2023-11-11T11:15:16.305Z,20.91
2023-11-11T11:17:47.298Z,21.04
2023-11-11T11:20:23.153Z,20.84
2023-11-11T11:22:52.844Z,20.84
2023-11-11T11:25:45.891Z,20.90
2023-11-11T11:28:16.989Z,20.93
2023-11-11T11:31:01.291Z,21.04
2023-11-11T11:33:35.431Z,20.97
2023-11-11T11:36:17.485Z,21.16
2023-11-11T11:38:47.230Z,20.91
2023-11-11T11:41:20.174Z,21.22
2023-11-11T11:43:56.373Z,21.20
2023-11-11T11:46:26.571Z,21.19
2023-11-11T11:48:56.375Z,21.22
2023-11-11T11:51:26.834Z,21.14
2023-11-11T11:53:56.608Z,21.08
2023-11-11T11:56:33.643Z,21.04
2023-11-11T11:59:05.496Z,21.13
2023-11-11T12:01:39.627Z,21.16
2023-11-11T12:04:09.582Z,21.10
2023-11-11T12:06:42.479Z,21.14
2023-11-11T12:09:12.511Z,21.22
2023-11-11T12:11:42.183Z,21.19
2023-11-11T12:14:12.441Z,21.30
2023-11-11T12:16:52.616Z,21.48
2023-11-11T12:19:29.901Z,21.39
2023-11-11T12:22:00.928Z,21.58
2023-11-11T12:24:32.258Z,21.35
2023-11-11T12:27:04.897Z,21.18
2023-11-11T12:29:43.018Z,21.34
2023-11-11T12:32:19.040Z,21.35
2023-11-11T12:34:53.718Z,21.37
2023-11-11T12:37:23.680Z,21.45
2023-11-11T12:39:53.951Z,21.40
2023-11-11T12:42:27.634Z,21.37
2023-11-11T12:44:57.376Z,21.45
2023-11-11T12:47:27.066Z,21.38
2023-11-11T12:49:57.400Z,21.51
2023-11-11T12:52:27.344Z,21.32
2023-11-11T12:54:57.095Z,21.36
2023-11-11T12:57:28.135Z,21.46
2023-11-11T13:00:02.617Z,21.35
2023-11-11T13:02:32.986Z,21.36
2023-11-11T13:05:10.669Z,21.18
2023-11-11T13:07:40.555Z,21.05
2023-11-11T13:10:13.774Z,21.29
2023-11-11T13:12:45.504Z,21.27
2023-11-11T13:15:16.012Z,21.33
2023-11-11T13:17:46.644Z,21.23
2023-11-11T13:20:17.181Z,21.12
2023-11-11T13:22:48.886Z,21.09
2023-11-11T13:25:18.821Z,21.27
2023-11-11T13:27:48.515Z,21.28
2023-11-11T13:30:18.286Z,21.10
2023-11-11T13:32:48.070Z,21.17
2023-11-11T13:35:19.767Z,21.14
2023-11-11T13:37:49.624Z,21.23
2023-11-11T13:40:33.796Z,21.08
2023-11-11T13:43:04.916Z,21.18
2023-11-11T13:45:38.085Z,20.97
2023-11-11T13:48:09.824Z,21.04
2023-11-11T13:50:39.596Z,20.98
2023-11-11T13:53:10.376Z,21.04
2023-11-11T13:55:40.233Z,21.00
2023-11-11T13:58:09.948Z,21.09
2023-11-11T14:00:40.840Z,21.04
2023-11-11T14:03:13.333Z,21.07
2023-11-11T14:05:47.677Z,21.09
2023-11-11T14:08:20.276Z,21.19
2023-11-11T14:10:49.996Z,21.09
2023-11-11T14:13:20.970Z,21.10
2023-11-11T14:15:50.897Z,21.43
2023-11-11T14:18:21.531Z,21.06
2023-11-11T14:20:51.328Z,21.31
2023-11-11T14:23:21.395Z,21.44
2023-11-11T14:25:52.391Z,21.27
2023-11-11T14:28:22.548Z,21.31
2023-11-11T14:30:53.047Z,21.25
2023-11-11T14:33:23.408Z,21.30
2023-11-11T14:35:53.196Z,21.07
2023-11-11T14:38:22.975Z,21.28
2023-11-11T14:40:52.703Z,21.31
2023-11-11T14:43:22.414Z,21.40
2023-11-11T14:45:52.187Z,21.34
2023-11-11T14:48:25.317Z,21.39
2023-11-11T14:50:55.054Z,21.26
2023-11-11T14:53:24.706Z,21.30
2023-11-11T14:55:54.665Z,21.35
2023-11-11T14:58:24.376Z,21.37
2023-11-11T15:00:55.263Z,21.34
2023-11-11T15:03:25.140Z,21.36
2023-11-11T15:05:55.330Z,21.26
2023-11-11T15:08:25.007Z,21.51
2023-11-11T15:10:54.735Z,21.30
2023-11-11T15:13:24.607Z,21.25
2023-11-11T15:15:55.074Z,21.37
2023-11-11T15:18:27.287Z,21.31
2023-11-11T15:20:57.119Z,21.39
2023-11-11T15:23:29.242Z,21.54
2023-11-11T15:26:01.770Z,21.45
2023-11-11T15:28:31.534Z,21.58
2023-11-11T15:31:01.207Z,21.25
2023-11-11T15:33:31.632Z,21.44
2023-11-11T15:36:01.835Z,21.55
2023-11-11T15:38:33.168Z,21.63
2023-11-11T15:41:03.092Z,21.55
2023-11-11T15:43:32.817Z,21.49
2023-11-11T15:46:02.496Z,21.53
2023-11-11T15:48:32.183Z,21.64
2023-11-11T15:51:08.775Z,21.47
2023-11-11T15:53:43.996Z,21.68
2023-11-11T15:56:16.505Z,21.61
2023-11-11T15:58:46.240Z,21.71
2023-11-11T16:01:17.056Z,21.68
2023-11-11T16:03:50.985Z,21.53
2023-11-11T16:06:21.071Z,21.76
2023-11-11T16:08:50.725Z,21.65
2023-11-11T16:11:21.142Z,21.68
2023-11-11T16:13:51.160Z,21.68
2023-11-11T16:16:23.225Z,21.64
2023-11-11T16:18:52.981Z,21.64
2023-11-11T16:21:26.966Z,21.63
2023-11-11T16:24:00.789Z,21.67
2023-11-11T16:26:32.187Z,21.68
2023-11-11T16:29:03.723Z,21.72
2023-11-11T16:31:36.458Z,21.63
2023-11-11T16:34:06.884Z,21.76
2023-11-11T16:36:36.537Z,21.73
2023-11-11T16:39:08.974Z,21.82
2023-11-11T16:41:38.660Z,21.70
2023-11-11T16:44:10.459Z,21.67
2023-11-11T16:46:40.790Z,21.83
2023-11-11T16:49:11.141Z,21.70
2023-11-11T16:51:40.778Z,21.66
2023-11-11T16:54:10.795Z,21.77
2023-11-11T16:56:40.471Z,21.77
2023-11-11T16:59:11.160Z,21.66
2023-11-11T17:01:43.933Z,21.73
2023-11-11T17:04:13.719Z,21.58
2023-11-11T17:06:43.600Z,21.78
2023-11-11T17:09:16.314Z,21.57
2023-11-11T17:11:49.473Z,21.59
2023-11-11T17:14:19.209Z,21.64
2023-11-11T17:16:49.521Z,21.68
2023-11-11T17:19:19.785Z,21.61
2023-11-11T17:21:49.468Z,21.46
2023-11-11T17:24:19.752Z,21.45
2023-11-11T17:26:49.420Z,21.67
2023-11-11T17:29:19.538Z,21.58
2023-11-11T17:31:49.316Z,21.74
2023-11-11T17:34:19.058Z,21.41
2023-11-11T17:36:48.911Z,21.72
2023-11-11T17:39:18.615Z,21.59
2023-11-11T17:41:48.542Z,21.52
2023-11-11T17:44:20.090Z,21.67
2023-11-11T17:46:49.903Z,21.62
2023-11-11T17:49:19.754Z,21.67
2023-11-11T17:51:49.640Z,21.61
2023-11-11T17:54:20.094Z,21.55
2023-11-11T17:56:49.798Z,21.75
2023-11-11T17:59:19.531Z,21.76
2023-11-11T18:01:49.313Z,21.72
2023-11-11T18:04:19.146Z,21.75
2023-11-11T18:06:48.832Z,21.83
2023-11-11T18:09:18.673Z,21.74
2023-11-11T18:11:48.826Z,21.69
2023-11-11T18:14:18.884Z,21.72
2023-11-11T18:16:50.807Z,21.73
2023-11-11T18:19:20.504Z,21.58
2023-11-11T18:21:53.039Z,21.77
2023-11-11T18:24:22.789Z,21.75
2023-11-11T18:26:52.649Z,21.75
2023-11-11T18:29:35.226Z,21.66
2023-11-11T18:32:05.657Z,21.51
2023-11-11T18:34:35.403Z,21.74
2023-11-11T18:37:05.322Z,21.51
2023-11-11T18:39:35.748Z,21.63
2023-11-11T18:42:05.662Z,21.63
2023-11-11T18:44:35.818Z,21.67
2023-11-11T18:47:05.605Z,21.68
2023-11-11T18:49:35.305Z,21.64
2023-11-11T18:52:05.040Z,21.54
2023-11-11T18:54:34.715Z,21.53
2023-11-11T18:57:04.559Z,21.54
2023-11-11T18:59:34.435Z,21.56
2023-11-11T19:02:04.286Z,21.68
2023-11-11T19:04:34.023Z,21.57
2023-11-11T19:07:03.755Z,21.73
2023-11-11T19:09:33.556Z,21.57
2023-11-11T19:12:03.193Z,21.64
2023-11-11T19:14:32.848Z,21.64
2023-11-11T19:17:02.605Z,21.73
2023-11-11T19:19:32.359Z,21.56
2023-11-11T19:22:01.996Z,21.62
2023-11-11T19:24:32.464Z,21.55
2023-11-11T19:27:02.592Z,21.62
2023-11-11T19:29:32.380Z,21.63
2023-11-11T19:32:02.154Z,21.58
2023-11-11T19:34:33.017Z,21.50
2023-11-11T19:37:04.255Z,21.60
2023-11-11T19:39:34.026Z,21.58
2023-11-11T19:42:03.731Z,21.56
2023-11-11T19:44:34.194Z,21.52
2023-11-11T19:47:03.911Z,21.63
2023-11-11T19:49:33.633Z,21.58
2023-11-11T19:52:03.297Z,21.59
2023-11-11T19:54:33.171Z,21.53
2023-11-11T19:57:02.894Z,21.48
2023-11-11T19:59:35.083Z,21.70
2023-11-11T20:02:08.258Z,21.73
2023-11-11T20:04:38.709Z,21.50
2023-11-11T20:07:08.693Z,21.58
2023-11-11T20:09:38.950Z,21.43
2023-11-11T20:12:09.537Z,21.47
2023-11-11T20:14:39.202Z,21.45
2023-11-11T20:17:10.137Z,21.59
2023-11-11T20:19:39.913Z,21.41
2023-11-11T20:22:09.788Z,21.45
2023-11-11T20:24:39.447Z,21.53
2023-11-11T20:27:09.516Z,21.44
2023-11-11T20:29:39.181Z,21.70
2023-11-11T20:32:09.608Z,21.58
2023-11-11T20:34:39.326Z,21.50
2023-11-11T20:37:09.143Z,21.59
2023-11-11T20:39:40.113Z,21.50
2023-11-11T20:42:10.172Z,21.67
2023-11-11T20:44:41.176Z,21.59
2023-11-11T20:47:10.940Z,21.67
2023-11-11T20:49:40.719Z,21.53
2023-11-11T20:52:10.675Z,21.54
2023-11-11T20:54:41.120Z,21.34
2023-11-11T20:57:10.849Z,21.48
2023-11-11T20:59:40.518Z,21.59
2023-11-11T21:02:10.186Z,21.62
2023-11-11T21:04:40.002Z,21.54
2023-11-11T21:07:10.513Z,21.28
2023-11-11T21:09:40.478Z,21.69
2023-11-11T21:12:10.322Z,21.65
2023-11-11T21:14:39.994Z,21.51
2023-11-11T21:17:09.714Z,21.58
2023-11-11T21:19:39.741Z,21.68
2023-11-11T21:22:09.500Z,21.59
2023-11-11T21:24:39.179Z,21.62
2023-11-11T21:27:09.759Z,21.63
2023-11-11T21:29:39.944Z,21.75
2023-11-11T21:32:09.773Z,21.48
2023-11-11T21:34:39.490Z,21.50
2023-11-11T21:37:10.402Z,21.61
2023-11-11T21:39:40.030Z,21.79
2023-11-11T21:42:09.809Z,21.67
2023-11-11T21:44:39.800Z,21.79
2023-11-11T21:47:09.733Z,21.55
2023-11-11T21:49:39.759Z,21.71
2023-11-11T21:52:09.580Z,21.70
2023-11-11T21:54:39.308Z,21.76
2023-11-11T21:57:08.954Z,21.81
2023-11-11T21:59:39.060Z,21.73
2023-11-11T22:02:08.858Z,21.74
2023-11-11T22:04:38.617Z,21.90
2023-11-11T22:07:08.859Z,21.89
2023-11-11T22:09:38.539Z,21.88
2023-11-11T22:12:08.733Z,21.54
2023-11-11T22:14:38.422Z,21.72
2023-11-11T22:17:08.266Z,21.87
2023-11-11T22:19:38.075Z,21.91
2023-11-11T22:22:08.028Z,21.89
2023-11-11T22:24:37.678Z,21.78
2023-11-11T22:27:08.094Z,21.62
2023-11-11T22:29:37.741Z,21.82
2023-11-11T22:32:09.695Z,21.88
2023-11-11T22:34:39.463Z,21.85
2023-11-11T22:37:11.083Z,21.90
2023-11-11T22:39:41.081Z,21.82
2023-11-11T22:42:11.731Z,21.80
2023-11-11T22:44:41.517Z,21.85
2023-11-11T22:47:11.145Z,21.76
2023-11-11T22:49:42.670Z,21.75
2023-11-11T22:52:12.380Z,21.37
2023-11-11T22:54:42.147Z,21.73
2023-11-11T22:57:11.844Z,21.74
2023-11-11T22:59:42.358Z,21.60
2023-11-11T23:02:12.369Z,21.69
2023-11-11T23:04:43.263Z,21.70
2023-11-11T23:07:13.261Z,21.78
2023-11-11T23:09:42.939Z,21.82
2023-11-11T23:12:13.338Z,21.60
2023-11-11T23:14:43.255Z,21.65
2023-11-11T23:17:14.567Z,21.75
2023-11-11T23:19:44.919Z,21.57
2023-11-11T23:22:14.596Z,21.77
2023-11-11T23:24:44.254Z,21.54
2023-11-11T23:27:13.888Z,21.72
2023-11-11T23:29:43.605Z,21.60
2023-11-11T23:32:13.859Z,21.65
2023-11-11T23:34:43.587Z,21.58
2023-11-11T23:37:13.897Z,21.58
2023-11-11T23:39:43.798Z,21.71
2023-11-11T23:42:13.526Z,21.58
2023-11-11T23:44:43.236Z,21.76
2023-11-11T23:47:12.936Z,21.70
2023-11-11T23:49:42.717Z,21.72
2023-11-11T23:52:12.662Z,21.78
2023-11-11T23:54:42.297Z,21.63
2023-11-11T23:57:12.129Z,21.71
2023-11-11T23:59:41.871Z,21.70
